Huvudsida
METAR-TAF:

METAR-TAF

Flygplatser :

Maiduguri, Nigeria

latitud: 11-51N, longitud: 013-05E, höjd: 354 m

METAR: saknas

Tid: 23:40 (22:40 UTC)

Väderprognos

Denna rapport gjordes för 11 timmar och 40 minuter sedan, klockan 11:00 UTC
Prognos gäller från 02 kl. 12 UTC till 03 kl. 18 UTC
Vind 6 kt från väst/sydväst
Sikt 10 km eller mer
Inga moln under 1 500 m eller inga cumulonimbus

TAF: DNMA 021100Z 0212/0318 24006KT CAVOK

Aktuella väderrapporter och prognoser från 4000 flygplatser (METAR- och TAF-rapporter).

De tillgängliga stationerna syns som gula och röda prickar på kartan.

För musen över prickarna för att se namnen på stationerna.

Klicka sedan för att få väderrapporter och prognoser.

För att ändra kartan: Klicka på de gröna knapparna med ett svart kors på för att zooma in; den gröna knappen med ett streck på för att zooma ut; eller på de gröna pilarna för angränsande kartor.


METAR-TAF: